Time;durP1;ratioP1;P1;durP2;ratioP2;P2;SDS_P1;SDS_P2;PMS_P1;PMS_P2;Temp;Humidity;BMP_temperature;BMP_pressure;BME280_temperature;BME280_humidity;BME280_pressure;Samples;Min_cycle;Max_cycle;Signal;HPM_P1;HPM_P2
2023/01/23 00:01:18;;;;;;;16.27;11.50;;;2.20;99.90;;;;;;4998071;28;89414;-32
2023/01/23 00:03:44;;;;;;;16.48;12.63;;;2.20;99.90;;;;;;4980091;28;89641;-31
2023/01/23 00:06:12;;;;;;;16.10;11.90;;;2.20;99.90;;;;;;4980078;28;89989;-30
2023/01/23 00:08:39;;;;;;;15.75;11.38;;;2.20;99.90;;;;;;4979397;28;89473;-31
2023/01/23 00:11:05;;;;;;;15.90;11.63;;;2.20;99.90;;;;;;4980147;28;89388;-31
2023/01/23 00:13:31;;;;;;;15.63;13.25;;;2.20;99.90;;;;;;4980206;28;90120;-33
2023/01/23 00:15:57;;;;;;;16.63;11.60;;;2.20;99.90;;;;;;4979047;28;89968;-30
2023/01/23 00:18:23;;;;;;;17.70;13.02;;;2.20;99.90;;;;;;4979066;28;90676;-30
2023/01/23 00:20:48;;;;;;;18.98;11.40;;;2.20;99.90;;;;;;4978748;28;90020;-33
2023/01/23 00:23:14;;;;;;;15.25;12.35;;;2.20;99.90;;;;;;4979326;28;89420;-31
2023/01/23 00:25:40;;;;;;;12.35;10.85;;;2.20;99.90;;;;;;4979920;28;89808;-33
2023/01/23 00:28:05;;;;;;;17.05;11.88;;;2.20;99.90;;;;;;4961222;28;89214;-33
2023/01/23 00:30:32;;;;;;;15.50;10.98;;;2.20;99.90;;;;;;4980108;28;89393;-33
2023/01/23 00:32:58;;;;;;;15.25;11.93;;;2.20;99.90;;;;;;4979230;28;89016;-31
2023/01/23 00:35:23;;;;;;;23.80;13.02;;;2.20;99.90;;;;;;4996050;28;90320;-34
2023/01/23 00:37:49;;;;;;;14.52;12.18;;;2.20;99.90;;;;;;4988864;28;89460;-34
2023/01/23 00:40:14;;;;;;;14.30;11.90;;;2.10;99.90;;;;;;4980273;28;90030;-34
2023/01/23 00:42:40;;;;;;;13.73;11.05;;;2.10;99.90;;;;;;4979611;28;90643;-32
2023/01/23 00:45:06;;;;;;;17.70;12.73;;;2.20;99.90;;;;;;4981014;28;88933;-31
2023/01/23 00:47:32;;;;;;;17.45;12.70;;;2.10;99.90;;;;;;4989861;28;90126;-32
2023/01/23 00:49:58;;;;;;;15.05;12.57;;;2.10;99.90;;;;;;4995589;28;91522;-33
2023/01/23 00:52:25;;;;;;;14.50;12.90;;;2.10;99.90;;;;;;4978347;28;89865;-32
2023/01/23 00:54:50;;;;;;;15.93;12.48;;;2.20;99.90;;;;;;4991464;28;89859;-31
2023/01/23 00:57:16;;;;;;;22.27;12.07;;;2.20;99.90;;;;;;4978648;28;90284;-31
2023/01/23 00:59:42;;;;;;;20.15;14.00;;;2.20;99.90;;;;;;4981505;28;89660;-33
2023/01/23 01:02:07;;;;;;;16.08;11.18;;;2.20;99.90;;;;;;4995082;28;88654;-34
2023/01/23 01:04:33;;;;;;;17.23;12.93;;;2.20;99.90;;;;;;4997741;28;90409;-35
2023/01/23 01:06:59;;;;;;;16.05;12.52;;;2.20;99.90;;;;;;4996009;28;90634;-31
2023/01/23 01:09:24;;;;;;;20.13;13.45;;;2.20;99.90;;;;;;4997297;28;90557;-30
2023/01/23 01:11:50;;;;;;;17.58;13.35;;;2.20;99.90;;;;;;4997825;28;89347;-32
2023/01/23 01:14:16;;;;;;;19.80;12.32;;;2.20;99.90;;;;;;4997400;28;91453;-33
2023/01/23 01:16:44;;;;;;;24.10;14.02;;;2.20;99.90;;;;;;4996822;28;89489;-32
2023/01/23 01:19:11;;;;;;;16.77;11.93;;;2.20;99.90;;;;;;4996260;28;89880;-33
2023/01/23 01:21:37;;;;;;;16.10;12.07;;;2.20;99.90;;;;;;4984464;28;89587;-33
2023/01/23 01:24:03;;;;;;;20.52;13.55;;;2.20;99.90;;;;;;4996073;28;90441;-33
2023/01/23 01:26:29;;;;;;;17.40;12.88;;;2.20;99.90;;;;;;4997415;28;89701;-34
2023/01/23 01:28:55;;;;;;;15.43;12.82;;;2.20;99.90;;;;;;4995139;28;89428;-33
2023/01/23 01:31:20;;;;;;;15.57;12.00;;;2.20;99.90;;;;;;4996611;28;89057;-33
2023/01/23 01:33:47;;;;;;;15.27;12.00;;;2.20;99.90;;;;;;4995868;28;90292;-32
2023/01/23 01:36:16;;;;;;;18.90;12.45;;;2.20;99.90;;;;;;4997296;28;89961;-31
2023/01/23 01:38:42;;;;;;;17.77;14.32;;;2.30;99.90;;;;;;4995376;28;91778;-32
2023/01/23 01:41:09;;;;;;;14.88;12.27;;;2.20;99.90;;;;;;4998199;28;88874;-31
2023/01/23 01:43:35;;;;;;;17.13;13.43;;;2.30;99.90;;;;;;4995333;28;89933;-32
2023/01/23 01:46:08;;;;;;;21.23;12.93;;;2.30;99.90;;;;;;4996058;28;90735;-34
2023/01/23 01:48:42;;;;;;;22.00;12.65;;;2.30;99.90;;;;;;4993980;28;90801;-31
2023/01/23 01:51:21;;;;;;;22.38;13.32;;;2.30;99.90;;;;;;4978665;28;88922;-32
2023/01/23 01:53:49;;;;;;;;;;;2.30;99.90;;;;;;4973001;28;90497;-35
2023/01/23 01:56:16;;;;;;;18.45;10.68;;;2.40;99.90;;;;;;4980487;28;89856;-32
2023/01/23 01:58:46;;;;;;;20.67;12.20;;;2.30;99.90;;;;;;4985739;28;90944;-31
2023/01/23 02:01:12;;;;;;;18.90;12.20;;;2.40;99.90;;;;;;4983615;28;88701;-33
2023/01/23 02:03:38;;;;;;;13.30;9.57;;;2.50;99.90;;;;;;4978184;28;89769;-33
2023/01/23 02:06:04;;;;;;;13.60;12.18;;;2.60;99.90;;;;;;4978992;28;89408;-32
2023/01/23 02:08:56;;;;;;;15.23;11.98;;;2.60;99.90;;;;;;4977538;28;89337;-34
2023/01/23 02:11:22;;;;;;;17.15;13.10;;;2.60;99.90;;;;;;4961447;28;88642;-33
2023/01/23 02:13:48;;;;;;;17.00;10.80;;;2.60;99.90;;;;;;4978396;28;90362;-31
2023/01/23 02:16:20;;;;;;;19.30;12.27;;;2.60;99.90;;;;;;4979051;28;89857;-32
2023/01/23 02:18:52;;;;;;;16.90;12.65;;;2.60;99.90;;;;;;4981777;28;89856;-30
2023/01/23 02:21:23;;;;;;;20.27;13.40;;;2.70;99.90;;;;;;4982348;28;90018;-31
2023/01/23 02:24:10;;;;;;;22.23;11.65;;;2.70;99.90;;;;;;4983889;28;90016;-32
2023/01/23 02:26:42;;;;;;;15.47;11.07;;;2.70;99.90;;;;;;4982792;28;89775;-32
2023/01/23 02:29:09;;;;;;;14.45;11.23;;;2.60;99.90;;;;;;4964723;28;90271;-31
2023/01/23 02:31:36;;;;;;;22.10;12.93;;;2.70;99.90;;;;;;4983069;28;89266;-31
2023/01/23 02:34:02;;;;;;;15.25;13.48;;;2.60;99.90;;;;;;4988748;28;90098;-33
2023/01/23 02:36:32;;;;;;;18.40;12.57;;;2.60;99.90;;;;;;4990124;28;89649;-33
2023/01/23 02:39:12;;;;;;;20.70;12.50;;;2.50;99.90;;;;;;4984751;28;89771;-31
2023/01/23 02:41:40;;;;;;;17.02;13.52;;;2.50;99.90;;;;;;4985208;28;88685;-32
2023/01/23 02:44:28;;;;;;;13.93;11.13;;;2.50;99.90;;;;;;4983028;28;90242;-32
2023/01/23 02:46:55;;;;;;;21.40;13.05;;;2.50;99.90;;;;;;4982127;28;91066;-32
2023/01/23 02:49:21;;;;;;;18.40;12.68;;;2.40;99.90;;;;;;4984440;28;89895;-32
2023/01/23 02:51:48;;;;;;;14.05;11.13;;;2.40;99.90;;;;;;4983404;28;88643;-31
2023/01/23 02:54:14;;;;;;;16.15;12.70;;;2.40;99.90;;;;;;4982600;28;88584;-32
2023/01/23 02:56:41;;;;;;;16.25;13.00;;;2.40;99.90;;;;;;4983590;28;89689;-31
2023/01/23 03:01:52;;;;;;;17.13;12.30;;;2.40;99.90;;;;;;4982497;28;88233;-32
2023/01/23 03:04:17;;;;;;;16.55;13.45;;;2.40;99.90;;;;;;4985764;28;92113;-32
2023/01/23 03:06:43;;;;;;;19.25;12.60;;;2.40;99.90;;;;;;5002718;28;89727;-32
2023/01/23 03:09:11;;;;;;;17.80;13.07;;;2.40;99.90;;;;;;5006835;28;89435;-31
2023/01/23 03:11:40;;;;;;;14.23;12.32;;;2.40;99.90;;;;;;4980379;28;89329;-32
2023/01/23 03:14:15;;;;;;;14.40;11.75;;;2.40;99.90;;;;;;4981475;28;90237;-32
2023/01/23 03:16:41;;;;;;;19.48;12.90;;;2.40;99.90;;;;;;4980999;28;89124;-34
2023/01/23 03:19:08;;;;;;;15.45;13.15;;;2.40;99.90;;;;;;4981183;28;89645;-32
2023/01/23 03:21:39;;;;;;;19.88;12.68;;;2.40;99.90;;;;;;4980141;28;89020;-31
2023/01/23 03:24:09;;;;;;;26.23;15.00;;;2.40;99.90;;;;;;4981053;28;89067;-31
2023/01/23 03:26:38;;;;;;;28.25;14.73;;;2.40;99.90;;;;;;4981672;28;91598;-33
2023/01/23 03:32:08;;;;;;;18.67;14.40;;;2.40;99.90;;;;;;4928812;28;89044;-33
2023/01/23 03:34:34;;;;;;;22.70;13.82;;;2.40;99.90;;;;;;4918541;28;89780;-33
2023/01/23 03:37:00;;;;;;;21.15;13.85;;;2.40;99.90;;;;;;4951207;28;90952;-32
2023/01/23 03:42:11;;;;;;;19.88;14.65;;;2.40;99.90;;;;;;4982198;28;89122;-32
2023/01/23 03:44:36;;;;;;;15.45;12.98;;;2.40;99.90;;;;;;4981945;28;90936;-32
2023/01/23 03:47:02;;;;;;;16.52;14.15;;;2.40;99.90;;;;;;4988051;28;90197;-32
2023/01/23 03:49:28;;;;;;;16.55;13.25;;;2.40;99.90;;;;;;5010783;28;89086;-32
2023/01/23 03:51:54;;;;;;;17.77;13.23;;;2.50;99.90;;;;;;4995474;28;89863;-31
2023/01/23 03:54:19;;;;;;;16.80;13.45;;;2.40;99.90;;;;;;4980433;28;90532;-33
2023/01/23 03:56:45;;;;;;;21.70;14.82;;;2.40;99.90;;;;;;4979152;28;89438;-31
2023/01/23 03:59:11;;;;;;;20.52;15.00;;;2.40;99.90;;;;;;4980261;28;89202;-32
2023/01/23 04:01:37;;;;;;;15.40;13.30;;;2.40;99.90;;;;;;4979869;28;89928;-32
2023/01/23 04:04:03;;;;;;;18.70;13.63;;;2.40;99.90;;;;;;4980690;28;90385;-33
2023/01/23 04:06:29;;;;;;;18.50;12.20;;;2.40;99.90;;;;;;4981397;28;90434;-32
2023/01/23 04:08:56;;;;;;;22.02;14.25;;;2.40;99.90;;;;;;4980946;28;89743;-32
2023/01/23 04:11:22;;;;;;;15.70;13.43;;;2.40;99.90;;;;;;4982745;28;88612;-31
2023/01/23 04:13:48;;;;;;;18.35;14.52;;;2.40;99.90;;;;;;4982309;28;90092;-31
2023/01/23 04:16:14;;;;;;;21.25;14.10;;;2.40;99.90;;;;;;4985399;28;89698;-31
2023/01/23 04:18:39;;;;;;;15.80;13.20;;;2.40;99.90;;;;;;4982673;28;89648;-33
2023/01/23 04:21:05;;;;;;;16.35;14.57;;;2.40;99.90;;;;;;4982226;28;89975;-31
2023/01/23 04:23:31;;;;;;;19.50;13.98;;;2.40;99.90;;;;;;4982842;28;90554;-32
2023/01/23 04:25:57;;;;;;;15.43;13.70;;;2.40;99.90;;;;;;4984968;28;90483;-32
2023/01/23 04:28:23;;;;;;;18.77;13.80;;;2.40;99.90;;;;;;4991814;28;89478;-33
2023/01/23 04:30:52;;;;;;;19.15;15.00;;;2.40;99.90;;;;;;4987288;28;87459;-31
2023/01/23 04:33:18;;;;;;;17.08;14.95;;;2.40;99.90;;;;;;4984863;28;90486;-32
2023/01/23 04:35:53;;;;;;;23.30;14.95;;;2.40;99.90;;;;;;4985637;28;91125;-32
2023/01/23 04:38:19;;;;;;;19.92;14.75;;;2.40;99.90;;;;;;4986421;28;88964;-32
2023/01/23 04:40:46;;;;;;;16.00;13.45;;;2.40;99.90;;;;;;4989869;28;89830;-30
2023/01/23 04:43:12;;;;;;;16.98;13.13;;;2.40;99.90;;;;;;4990231;28;89930;-32
2023/01/23 04:45:37;;;;;;;16.27;14.50;;;2.40;99.90;;;;;;4989718;28;89635;-31
2023/01/23 04:48:03;;;;;;;18.48;13.98;;;2.30;99.90;;;;;;4998384;28;89377;-31
2023/01/23 04:50:29;;;;;;;24.50;14.15;;;2.40;99.90;;;;;;4999108;28;89376;-32
2023/01/23 04:52:57;;;;;;;22.52;13.98;;;2.30;99.90;;;;;;4997623;28;92015;-31
2023/01/23 04:55:23;;;;;;;14.93;13.10;;;2.30;99.90;;;;;;4998211;28;89184;-31
2023/01/23 04:57:49;;;;;;;18.65;14.38;;;2.30;99.90;;;;;;4998025;28;90280;-32
2023/01/23 05:00:16;;;;;;;21.48;14.98;;;2.30;99.90;;;;;;4998862;28;89351;-32
2023/01/23 05:02:44;;;;;;;19.73;13.77;;;2.30;99.90;;;;;;4998687;28;89990;-32
2023/01/23 05:05:11;;;;;;;16.20;12.68;;;2.30;99.90;;;;;;5010744;28;90113;-31
2023/01/23 05:07:37;;;;;;;17.77;14.23;;;2.30;99.90;;;;;;4995623;28;89250;-33
2023/01/23 05:10:03;;;;;;;19.40;13.68;;;2.30;99.90;;;;;;4978764;28;89897;-32
2023/01/23 05:12:29;;;;;;;19.33;15.70;;;2.30;99.90;;;;;;4978231;28;91758;-32
2023/01/23 05:14:55;;;;;;;19.13;13.52;;;2.30;99.90;;;;;;4978378;28;90230;-33
2023/01/23 05:17:20;;;;;;;15.93;13.32;;;2.30;99.90;;;;;;4990713;28;90260;-31
2023/01/23 05:19:46;;;;;;;17.45;12.70;;;2.40;99.90;;;;;;4978878;28;88766;-31
2023/01/23 05:22:12;;;;;;;18.40;14.18;;;2.40;99.90;;;;;;4979125;28;90156;-32
2023/01/23 05:24:37;;;;;;;25.25;14.65;;;2.30;99.90;;;;;;4978890;28;88661;-33
2023/01/23 05:27:03;;;;;;;17.65;14.15;;;2.30;99.90;;;;;;4979042;28;89695;-32
2023/01/23 05:29:29;;;;;;;16.17;12.02;;;2.30;99.90;;;;;;4978655;28;89334;-33
2023/01/23 05:31:54;;;;;;;22.70;14.82;;;2.30;99.90;;;;;;4973845;28;89882;-31
2023/01/23 05:34:20;;;;;;;18.85;14.07;;;2.30;99.90;;;;;;4987753;28;89702;-31
2023/01/23 05:36:45;;;;;;;27.63;14.60;;;2.30;99.90;;;;;;4982105;28;89712;-30
2023/01/23 05:39:11;;;;;;;21.67;15.88;;;2.30;99.90;;;;;;4986398;28;90088;-32
2023/01/23 05:41:37;;;;;;;18.23;14.30;;;2.30;99.90;;;;;;4982716;28;89591;-34
2023/01/23 05:44:02;;;;;;;20.45;14.82;;;2.30;99.90;;;;;;4978541;28;90021;-33
2023/01/23 05:46:28;;;;;;;21.05;14.65;;;2.30;99.90;;;;;;4981778;28;89958;-34
2023/01/23 05:48:53;;;;;;;15.38;13.80;;;2.30;99.90;;;;;;4997713;28;88086;-31
2023/01/23 05:51:19;;;;;;;17.15;13.75;;;2.30;99.90;;;;;;4997276;28;90628;-32
2023/01/23 05:53:45;;;;;;;17.77;14.38;;;2.30;99.90;;;;;;4994109;28;90557;-32
2023/01/23 05:56:11;;;;;;;16.55;14.15;;;2.30;99.90;;;;;;4981124;28;89759;-32
2023/01/23 05:58:36;;;;;;;18.05;14.65;;;2.30;99.90;;;;;;4993816;28;88589;-32
2023/01/23 06:01:03;;;;;;;18.80;12.82;;;2.20;99.90;;;;;;4981538;28;91833;-31
2023/01/23 06:03:29;;;;;;;21.42;14.20;;;2.30;99.90;;;;;;4980967;28;90630;-33
2023/01/23 06:05:55;;;;;;;22.75;15.63;;;2.40;99.90;;;;;;4981521;28;90290;-30
2023/01/23 06:08:20;;;;;;;33.35;29.77;;;2.30;99.90;;;;;;4981923;28;87752;-32
2023/01/23 06:10:46;;;;;;;17.98;13.80;;;2.30;99.90;;;;;;4981400;28;90373;-31
2023/01/23 06:13:12;;;;;;;21.38;15.00;;;2.30;99.90;;;;;;4982510;28;89190;-31
2023/01/23 06:15:37;;;;;;;16.33;14.65;;;2.30;99.90;;;;;;4995004;28;89571;-31
2023/01/23 06:18:03;;;;;;;20.20;13.90;;;2.40;99.90;;;;;;5001265;28;89062;-32
2023/01/23 06:20:28;;;;;;;14.23;12.88;;;2.30;99.90;;;;;;4987155;28;90214;-32
2023/01/23 06:22:54;;;;;;;18.00;14.07;;;2.40;99.90;;;;;;4992501;28;89829;-32
2023/01/23 06:25:21;;;;;;;21.35;14.05;;;2.40;99.90;;;;;;4983241;28;89667;-31
2023/01/23 06:27:47;;;;;;;20.80;14.45;;;2.40;99.90;;;;;;4993217;28;90060;-32
2023/01/23 06:30:13;;;;;;;19.20;13.18;;;2.40;99.90;;;;;;4999266;28;89705;-32
2023/01/23 06:32:39;;;;;;;15.18;12.88;;;2.50;99.90;;;;;;4978932;28;90264;-33
2023/01/23 06:35:06;;;;;;;18.92;14.45;;;2.50;99.90;;;;;;4981422;28;89610;-30
2023/01/23 06:37:31;;;;;;;16.02;13.10;;;2.40;99.90;;;;;;4981928;28;89378;-31
2023/01/23 06:39:57;;;;;;;14.65;12.57;;;2.40;99.90;;;;;;4980487;28;89877;-31
2023/01/23 06:42:22;;;;;;;16.20;12.50;;;2.40;99.90;;;;;;4980552;28;90020;-33
2023/01/23 06:44:48;;;;;;;20.92;14.00;;;2.40;99.90;;;;;;4996683;28;89498;-33
2023/01/23 06:47:15;;;;;;;18.85;12.82;;;2.40;99.90;;;;;;5000196;28;88108;-32
2023/01/23 06:49:41;;;;;;;15.00;13.07;;;2.40;99.90;;;;;;5000462;28;88185;-34
2023/01/23 06:52:06;;;;;;;19.30;13.65;;;2.40;99.90;;;;;;4980116;28;90391;-33
2023/01/23 06:54:32;;;;;;;15.90;12.68;;;2.40;99.90;;;;;;4980577;28;90079;-31
2023/01/23 06:56:57;;;;;;;20.77;15.15;;;2.40;99.90;;;;;;4999735;28;88156;-31
2023/01/23 06:59:23;;;;;;;18.45;13.70;;;2.40;99.90;;;;;;4999454;28;90378;-32
2023/01/23 07:01:49;;;;;;;22.80;15.27;;;2.30;99.90;;;;;;4997609;28;90474;-32
2023/01/23 07:04:15;;;;;;;15.43;13.43;;;2.30;99.90;;;;;;4999266;28;89300;-31
2023/01/23 07:06:40;;;;;;;21.42;15.68;;;2.30;99.90;;;;;;4999770;28;90232;-32
2023/01/23 07:09:06;;;;;;;17.13;14.27;;;2.30;99.90;;;;;;4997193;28;89280;-31
2023/01/23 07:11:32;;;;;;;21.88;14.75;;;2.30;99.90;;;;;;4996923;28;89978;-31
2023/01/23 07:13:58;;;;;;;22.52;16.42;;;2.30;99.90;;;;;;4999744;28;90026;-31
2023/01/23 07:16:24;;;;;;;20.15;14.88;;;2.30;99.90;;;;;;4997493;28;89691;-32
2023/01/23 07:18:50;;;;;;;18.10;14.40;;;2.30;99.90;;;;;;4999646;28;89823;-32
2023/01/23 07:21:15;;;;;;;20.63;15.57;;;2.30;99.90;;;;;;4999294;28;89428;-32
2023/01/23 07:23:41;;;;;;;19.77;15.20;;;2.30;99.90;;;;;;4999137;28;89278;-34
2023/01/23 07:26:08;;;;;;;20.75;13.52;;;2.30;99.90;;;;;;4999846;28;89856;-30
2023/01/23 07:28:35;;;;;;;18.67;14.50;;;2.30;99.90;;;;;;4997822;28;90588;-30
2023/01/23 07:31:01;;;;;;;18.80;14.50;;;2.30;99.90;;;;;;4998096;28;89769;-33
2023/01/23 07:33:27;;;;;;;19.85;14.77;;;2.30;99.90;;;;;;5000150;28;89873;-31
2023/01/23 07:35:53;;;;;;;19.02;14.40;;;2.30;99.90;;;;;;4980731;28;88851;-31
2023/01/23 07:38:19;;;;;;;16.63;12.43;;;2.40;99.90;;;;;;4997447;28;90020;-31
2023/01/23 07:40:44;;;;;;;16.50;12.63;;;2.40;99.90;;;;;;4998424;28;90714;-31
2023/01/23 07:43:11;;;;;;;20.13;15.60;;;2.40;99.90;;;;;;4999461;28;90267;-34
2023/01/23 07:45:36;;;;;;;18.25;13.80;;;2.40;99.90;;;;;;4999779;28;87610;-32
2023/01/23 07:48:03;;;;;;;15.80;12.88;;;2.40;99.90;;;;;;4998752;28;94378;-32
2023/01/23 07:50:28;;;;;;;14.27;12.85;;;2.40;99.90;;;;;;4999978;28;89650;-32
2023/01/23 07:52:54;;;;;;;15.20;13.63;;;2.40;99.90;;;;;;4996479;28;89277;-35
2023/01/23 07:55:20;;;;;;;16.08;13.88;;;2.40;99.90;;;;;;4999765;28;89385;-33
2023/01/23 07:57:46;;;;;;;17.38;13.25;;;2.50;99.90;;;;;;4999315;28;92328;-33
2023/01/23 08:00:12;;;;;;;17.55;13.10;;;2.40;99.90;;;;;;4999180;28;90484;-33
2023/01/23 08:02:38;;;;;;;18.15;13.25;;;2.50;99.90;;;;;;4986293;28;89621;-31
2023/01/23 08:05:04;;;;;;;17.35;13.85;;;2.40;99.90;;;;;;4978740;28;88920;-33
2023/01/23 08:07:29;;;;;;;15.75;11.98;;;2.40;99.90;;;;;;4979852;28;90234;-30
2023/01/23 08:09:55;;;;;;;19.15;13.85;;;2.40;99.90;;;;;;4987136;28;89560;-31
2023/01/23 08:12:21;;;;;;;15.80;12.77;;;2.40;99.90;;;;;;4983109;28;89654;-32
2023/01/23 08:14:47;;;;;;;19.23;13.45;;;2.40;99.90;;;;;;4983970;28;90613;-31
2023/01/23 08:17:13;;;;;;;23.10;13.27;;;2.50;99.90;;;;;;4989024;28;90595;-34
2023/01/23 08:19:39;;;;;;;17.33;13.45;;;2.50;99.90;;;;;;4993351;28;90910;-32
2023/01/23 08:22:04;;;;;;;15.27;13.13;;;2.50;99.90;;;;;;4990208;28;91387;-32
2023/01/23 08:24:30;;;;;;;18.73;14.57;;;2.50;99.90;;;;;;4993865;28;88734;-32
2023/01/23 08:26:56;;;;;;;19.10;12.73;;;2.50;99.90;;;;;;4989431;28;90227;-32
2023/01/23 08:29:22;;;;;;;16.70;12.40;;;2.50;99.90;;;;;;4992252;28;89834;-32
2023/01/23 08:31:47;;;;;;;16.63;12.55;;;2.60;99.90;;;;;;4987424;28;90916;-34
2023/01/23 08:34:13;;;;;;;13.45;10.98;;;2.60;99.90;;;;;;4992944;28;88440;-33
2023/01/23 08:36:39;;;;;;;17.85;12.93;;;2.60;99.90;;;;;;4987593;28;89667;-33
2023/01/23 08:39:04;;;;;;;13.60;11.65;;;2.60;99.90;;;;;;4992718;28;88809;-31
2023/01/23 08:41:30;;;;;;;12.25;10.63;;;2.50;99.90;;;;;;4986312;28;89504;-30
2023/01/23 08:44:00;;;;;;;16.90;11.57;;;2.60;99.90;;;;;;4992695;28;89640;-33
2023/01/23 08:46:27;;;;;;;18.73;11.80;;;2.60;99.90;;;;;;4987527;28;89905;-32
2023/01/23 08:48:52;;;;;;;12.93;11.55;;;2.70;99.90;;;;;;4989225;28;91159;-31
2023/01/23 08:51:18;;;;;;;14.70;10.85;;;2.70;99.90;;;;;;4976454;28;89289;-31
2023/01/23 08:53:44;;;;;;;11.20;10.13;;;2.70;99.90;;;;;;4978321;28;88514;-33
2023/01/23 08:56:14;;;;;;;13.95;9.73;;;2.70;99.90;;;;;;4977055;28;89947;-33
2023/01/23 08:58:39;;;;;;;14.07;12.15;;;2.80;99.90;;;;;;4976992;28;89645;-31
2023/01/23 09:01:10;;;;;;;15.07;11.13;;;2.80;99.90;;;;;;4977028;28;90427;-30
2023/01/23 09:03:36;;;;;;;14.88;11.35;;;2.80;99.90;;;;;;4977135;28;88463;-32
2023/01/23 09:06:01;;;;;;;12.68;11.32;;;2.80;99.90;;;;;;4990457;28;90364;-31
2023/01/23 09:08:27;;;;;;;12.70;10.15;;;2.80;99.90;;;;;;4977036;28;89504;-32
2023/01/23 09:10:53;;;;;;;18.90;10.20;;;2.80;99.90;;;;;;4979706;28;88743;-32
2023/01/23 09:13:18;;;;;;;16.45;12.10;;;2.70;99.90;;;;;;4987626;28;88437;-31
2023/01/23 09:15:44;;;;;;;15.02;11.93;;;2.80;99.90;;;;;;4973681;28;90127;-32
2023/01/23 09:18:10;;;;;;;14.02;10.93;;;2.80;99.90;;;;;;4990464;28;90398;-32
2023/01/23 09:20:37;;;;;;;12.65;11.32;;;2.80;99.90;;;;;;4986884;28;90947;-33
2023/01/23 09:23:02;;;;;;;13.55;11.55;;;2.80;99.90;;;;;;4991273;28;89049;-33
2023/01/23 09:25:30;;;;;;;11.98;10.73;;;2.90;99.90;;;;;;4987673;28;89826;-33
2023/01/23 09:27:56;;;;;;;16.33;13.00;;;2.90;99.90;;;;;;4991724;28;89543;-32
2023/01/23 09:30:21;;;;;;;12.13;10.82;;;2.90;99.90;;;;;;4992086;28;89845;-31
2023/01/23 09:32:47;;;;;;;13.60;10.35;;;2.90;99.90;;;;;;4994368;28;89385;-34
2023/01/23 09:35:12;;;;;;;19.25;11.57;;;3.00;99.90;;;;;;4992828;28;90549;-32
2023/01/23 09:40:25;;;;;;;14.60;11.13;;;3.00;99.90;;;;;;4995732;28;89626;-31
2023/01/23 09:42:53;;;;;;;16.20;10.95;;;3.00;99.90;;;;;;4991583;28;88799;-33
2023/01/23 09:45:23;;;;;;;10.98;8.75;;;3.00;99.90;;;;;;4999477;28;90089;-32
2023/01/23 09:47:59;;;;;;;16.48;11.45;;;3.10;99.90;;;;;;5020381;22;90389;-34
2023/01/23 09:50:27;;;;;;;14.13;12.18;;;3.00;99.90;;;;;;4979318;28;89614;-31
2023/01/23 09:53:11;;;;;;;16.33;11.43;;;3.00;99.90;;;;;;4978568;28;89265;-34
2023/01/23 09:55:56;;;;;;;16.77;11.23;;;3.10;99.90;;;;;;4968882;28;90139;-32
2023/01/23 09:58:49;;;;;;;11.57;9.75;;;3.10;99.90;;;;;;4979125;28;89951;-32
2023/01/23 10:01:15;;;;;;;13.48;10.95;;;3.10;99.90;;;;;;4979752;28;90242;-33
2023/01/23 10:03:41;;;;;;;17.38;12.40;;;3.10;99.90;;;;;;4979212;28;88704;-34
2023/01/23 10:06:23;;;;;;;17.02;11.70;;;3.10;99.90;;;;;;4977985;28;90456;-31
2023/01/23 10:09:29;;;;;;;13.32;10.55;;;3.10;99.90;;;;;;4978521;28;90259;-34
2023/01/23 10:12:05;;;;;;;11.93;10.68;;;3.20;99.90;;;;;;4937779;28;90451;-31
2023/01/23 10:14:52;;;;;;;14.90;11.70;;;3.20;99.90;;;;;;4978583;28;89506;-32
2023/01/23 10:17:47;;;;;;;11.38;9.95;;;3.20;99.90;;;;;;4978953;28;89750;-31
2023/01/23 10:20:28;;;;;;;12.13;10.82;;;3.20;99.90;;;;;;4972686;28;89866;-32
2023/01/23 10:23:17;;;;;;;13.98;11.07;;;3.20;99.90;;;;;;4978898;28;89327;-33
2023/01/23 10:25:43;;;;;;;12.65;11.07;;;3.20;99.90;;;;;;4976676;28;88941;-34
2023/01/23 10:28:34;;;;;;;17.85;10.48;;;3.20;99.90;;;;;;4978980;28;90211;-33
2023/01/23 10:31:04;;;;;;;13.80;10.40;;;3.20;99.90;;;;;;4979503;28;90016;-33
2023/01/23 10:33:41;;;;;;;13.73;10.90;;;3.20;99.90;;;;;;4978827;28;89812;-31
2023/01/23 10:36:27;;;;;;;18.10;12.20;;;3.30;99.90;;;;;;4979097;28;89176;-32
2023/01/23 10:39:21;;;;;;;16.45;11.90;;;3.20;99.90;;;;;;4977550;28;91255;-32
2023/01/23 10:41:47;;;;;;;17.27;11.52;;;3.30;99.90;;;;;;4977845;28;90110;-31
2023/01/23 10:44:19;;;;;;;18.73;13.60;;;3.30;99.90;;;;;;4979690;28;89201;-31
2023/01/23 10:46:48;;;;;;;16.38;10.90;;;3.30;99.90;;;;;;4978348;28;88149;-32
2023/01/23 10:49:36;;;;;;;16.70;12.52;;;3.30;99.90;;;;;;4978335;28;90323;-32
2023/01/23 10:52:03;;;;;;;15.10;11.93;;;3.30;99.90;;;;;;4978463;28;90099;-33
2023/01/23 10:54:29;;;;;;;15.70;12.43;;;3.30;99.90;;;;;;4978960;28;89843;-34
2023/01/23 10:57:07;;;;;;;14.75;11.70;;;3.30;99.90;;;;;;4977587;28;87813;-32
2023/01/23 10:59:37;;;;;;;14.47;12.93;;;3.30;99.90;;;;;;4978635;28;90288;-31
2023/01/23 11:02:12;;;;;;;15.40;12.23;;;3.30;99.90;;;;;;4969640;28;91233;-35
2023/01/23 11:04:39;;;;;;;14.10;12.65;;;3.30;99.90;;;;;;4977726;28;90715;-31
2023/01/23 11:07:04;;;;;;;14.30;10.90;;;3.30;99.90;;;;;;4978049;28;89129;-31
2023/01/23 11:09:30;;;;;;;14.95;12.45;;;3.40;99.90;;;;;;4959880;28;89997;-34
2023/01/23 11:12:01;;;;;;;38.15;34.13;;;3.40;99.90;;;;;;4978240;28;90153;-33
2023/01/23 11:14:27;;;;;;;16.20;11.73;;;3.40;99.90;;;;;;4978946;28;89600;-32
2023/01/23 11:17:12;;;;;;;15.35;12.65;;;3.40;99.90;;;;;;4977631;28;89542;-31
2023/01/23 11:19:38;;;;;;;15.95;12.98;;;3.40;99.90;;;;;;4977765;28;89692;-34
2023/01/23 11:22:23;;;;;;;14.25;12.13;;;3.40;99.90;;;;;;4978031;28;91401;-32
2023/01/23 11:24:49;;;;;;;15.75;12.43;;;3.40;99.90;;;;;;4969000;28;90078;-31
2023/01/23 11:27:29;;;;;;;16.38;12.85;;;3.30;99.90;;;;;;4977506;28;89834;-33
2023/01/23 11:30:28;;;;;;;16.52;12.07;;;3.40;99.90;;;;;;4977671;28;89588;-34
2023/01/23 11:33:02;;;;;;;15.98;12.40;;;3.40;99.90;;;;;;4968508;28;90051;-34
2023/01/23 11:35:59;;;;;;;13.70;12.07;;;3.40;99.90;;;;;;4978142;28;89484;-33
2023/01/23 11:38:27;;;;;;;14.52;12.45;;;3.50;99.90;;;;;;4976886;28;88781;-32
2023/01/23 11:40:52;;;;;;;13.95;11.23;;;3.50;99.90;;;;;;4975265;28;90255;-31
2023/01/23 11:43:18;;;;;;;15.27;12.77;;;3.50;99.90;;;;;;4976394;28;89574;-32
2023/01/23 11:46:02;;;;;;;15.75;12.00;;;3.50;99.90;;;;;;4977335;28;89498;-33
2023/01/23 11:48:48;;;;;;;18.48;14.63;;;3.50;99.90;;;;;;4977848;28;88386;-33
2023/01/23 11:51:32;;;;;;;14.85;11.43;;;3.60;99.90;;;;;;4976943;28;88757;-34
2023/01/23 11:54:26;;;;;;;17.85;12.65;;;3.50;99.90;;;;;;4966162;28;91092;-32
2023/01/23 11:57:01;;;;;;;14.27;12.07;;;3.60;99.90;;;;;;4976528;28;90482;-32
2023/01/23 11:59:56;;;;;;;15.57;12.10;;;3.60;99.90;;;;;;4959323;28;89406;-34
2023/01/23 12:02:37;;;;;;;16.15;13.55;;;3.60;99.90;;;;;;4958771;28;90144;-32
2023/01/23 12:05:30;;;;;;;17.77;13.20;;;3.60;99.90;;;;;;4976776;28;89689;-32
2023/01/23 12:08:16;;;;;;;18.50;14.55;;;3.60;99.90;;;;;;4976227;28;89360;-33
2023/01/23 12:10:48;;;;;;;16.40;13.23;;;3.60;99.90;;;;;;4977543;28;88760;-33
2023/01/23 12:13:19;;;;;;;18.38;12.77;;;3.70;99.90;;;;;;4977874;28;89810;-33
2023/01/23 12:16:06;;;;;;;13.95;12.52;;;3.70;99.90;;;;;;4977184;28;88970;-31
2023/01/23 12:18:51;;;;;;;16.85;13.65;;;3.70;99.90;;;;;;4977196;28;89654;-33
2023/01/23 12:21:18;;;;;;;19.80;15.35;;;3.70;99.90;;;;;;4964432;28;89989;-33
2023/01/23 12:23:58;;;;;;;18.85;13.85;;;3.70;99.90;;;;;;4976300;28;90139;-33
2023/01/23 12:26:27;;;;;;;18.13;14.23;;;3.60;99.90;;;;;;4977052;28;89433;-35
2023/01/23 12:29:30;;;;;;;16.10;12.73;;;3.70;99.90;;;;;;4975424;28;89646;-32
2023/01/23 12:32:30;;;;;;;17.88;13.75;;;3.70;99.90;;;;;;4976899;28;89981;-32
2023/01/23 12:34:59;;;;;;;14.00;12.48;;;3.70;99.90;;;;;;4970133;28;89874;-31
2023/01/23 12:37:49;;;;;;;17.77;14.70;;;3.70;99.90;;;;;;4975460;28;90117;-31
2023/01/23 12:40:25;;;;;;;16.70;14.25;;;3.70;99.90;;;;;;4954226;28;89268;-31
2023/01/23 12:43:09;;;;;;;15.70;13.43;;;3.70;99.90;;;;;;4976694;28;90188;-32
2023/01/23 12:45:39;;;;;;;15.57;13.88;;;3.80;99.90;;;;;;4975412;28;90199;-34
2023/01/23 12:48:27;;;;;;;17.58;13.43;;;3.80;99.90;;;;;;4975814;28;91865;-32
2023/01/23 12:51:03;;;;;;;19.58;13.10;;;3.80;99.90;;;;;;4976329;28;90239;-34
2023/01/23 12:53:33;;;;;;;17.80;15.50;;;4.00;99.90;;;;;;4976381;28;88712;-33
2023/01/23 12:56:21;;;;;;;17.67;14.50;;;3.90;99.90;;;;;;4976814;28;90192;-31
2023/01/23 12:59:01;;;;;;;15.23;13.50;;;3.90;99.90;;;;;;4976232;28;89961;-32
2023/01/23 13:01:46;;;;;;;15.65;13.90;;;3.80;99.90;;;;;;4975991;28;89562;-33